sensor_id;sensor_type;location;lat;lon;timestamp;temperature;humidity
4050;DHT22;2039;50.894;6.888;2022-09-09T00:04:33;18.70;99.90
4050;DHT22;2039;50.894;6.888;2022-09-09T00:07:07;18.70;99.90
4050;DHT22;2039;50.894;6.888;2022-09-09T00:15:30;18.50;99.90
4050;DHT22;2039;50.894;6.888;2022-09-09T00:23:29;18.40;99.90
4050;DHT22;2039;50.894;6.888;2022-09-09T00:31:26;18.40;99.90
4050;DHT22;2039;50.894;6.888;2022-09-09T00:33:55;18.30;99.90
4050;DHT22;2039;50.894;6.888;2022-09-09T00:36:24;18.30;99.90
4050;DHT22;2039;50.894;6.888;2022-09-09T00:38:56;18.20;99.90
4050;DHT22;2039;50.894;6.888;2022-09-09T00:58:08;18.10;99.90
4050;DHT22;2039;50.894;6.888;2022-09-09T01:11:26;18.10;99.90
4050;DHT22;2039;50.894;6.888;2022-09-09T01:17:22;18.10;99.90
4050;DHT22;2039;50.894;6.888;2022-09-09T01:20:15;18.00;99.90
4050;DHT22;2039;50.894;6.888;2022-09-09T01:28:08;18.00;99.90
4050;DHT22;2039;50.894;6.888;2022-09-09T01:30:39;18.00;99.90
4050;DHT22;2039;50.894;6.888;2022-09-09T01:33:09;18.00;99.90
4050;DHT22;2039;50.894;6.888;2022-09-09T01:38:22;18.00;99.90
4050;DHT22;2039;50.894;6.888;2022-09-09T01:40:49;18.10;99.90
4050;DHT22;2039;50.894;6.888;2022-09-09T01:43:18;18.10;99.90
4050;DHT22;2039;50.894;6.888;2022-09-09T01:45:47;17.90;99.90
4050;DHT22;2039;50.894;6.888;2022-09-09T01:48:14;17.80;99.90
4050;DHT22;2039;50.894;6.888;2022-09-09T01:50:40;17.80;99.90
4050;DHT22;2039;50.894;6.888;2022-09-09T01:53:06;17.90;99.90
4050;DHT22;2039;50.894;6.888;2022-09-09T01:55:37;17.80;99.90
4050;DHT22;2039;50.894;6.888;2022-09-09T01:58:28;17.80;99.90
4050;DHT22;2039;50.894;6.888;2022-09-09T02:03:52;17.90;99.90
4050;DHT22;2039;50.894;6.888;2022-09-09T02:06:33;17.90;99.90
4050;DHT22;2039;50.894;6.888;2022-09-09T02:09:03;17.90;99.90
4050;DHT22;2039;50.894;6.888;2022-09-09T02:11:30;17.90;99.90
4050;DHT22;2039;50.894;6.888;2022-09-09T02:14:10;17.90;99.90
4050;DHT22;2039;50.894;6.888;2022-09-09T02:16:53;18.00;99.90
4050;DHT22;2039;50.894;6.888;2022-09-09T02:19:27;18.00;99.90
4050;DHT22;2039;50.894;6.888;2022-09-09T02:21:57;18.00;99.90
4050;DHT22;2039;50.894;6.888;2022-09-09T02:24:25;18.00;99.90
4050;DHT22;2039;50.894;6.888;2022-09-09T02:26:53;18.00;99.90
4050;DHT22;2039;50.894;6.888;2022-09-09T02:29:30;18.00;99.90
4050;DHT22;2039;50.894;6.888;2022-09-09T02:32:01;18.00;99.90
4050;DHT22;2039;50.894;6.888;2022-09-09T02:34:31;18.00;99.90
4050;DHT22;2039;50.894;6.888;2022-09-09T02:36:59;18.00;99.90
4050;DHT22;2039;50.894;6.888;2022-09-09T02:39:25;18.00;99.90
4050;DHT22;2039;50.894;6.888;2022-09-09T02:41:51;17.90;99.90
4050;DHT22;2039;50.894;6.888;2022-09-09T02:44:19;17.90;99.90
4050;DHT22;2039;50.894;6.888;2022-09-09T02:49:52;17.90;99.90
4050;DHT22;2039;50.894;6.888;2022-09-09T02:52:27;17.80;99.90
4050;DHT22;2039;50.894;6.888;2022-09-09T02:55:03;17.80;99.90
4050;DHT22;2039;50.894;6.888;2022-09-09T02:57:31;17.80;99.90
4050;DHT22;2039;50.894;6.888;2022-09-09T02:59:59;17.80;99.90
4050;DHT22;2039;50.894;6.888;2022-09-09T03:02:26;17.80;99.90
4050;DHT22;2039;50.894;6.888;2022-09-09T03:04:51;17.70;99.90
4050;DHT22;2039;50.894;6.888;2022-09-09T03:07:18;17.70;99.90
4050;DHT22;2039;50.894;6.888;2022-09-09T03:09:44;17.70;99.90
4050;DHT22;2039;50.894;6.888;2022-09-09T03:12:11;17.60;99.90
4050;DHT22;2039;50.894;6.888;2022-09-09T03:14:37;17.60;99.90
4050;DHT22;2039;50.894;6.888;2022-09-09T03:17:04;17.60;99.90
4050;DHT22;2039;50.894;6.888;2022-09-09T03:19:30;17.60;99.90
4050;DHT22;2039;50.894;6.888;2022-09-09T03:21:55;17.60;99.90
4050;DHT22;2039;50.894;6.888;2022-09-09T03:24:21;17.60;99.90
4050;DHT22;2039;50.894;6.888;2022-09-09T03:26:48;17.60;99.90
4050;DHT22;2039;50.894;6.888;2022-09-09T03:29:14;17.60;99.90
4050;DHT22;2039;50.894;6.888;2022-09-09T03:31:40;17.50;99.90
4050;DHT22;2039;50.894;6.888;2022-09-09T03:34:09;17.60;99.90
4050;DHT22;2039;50.894;6.888;2022-09-09T03:36:39;17.60;99.90
4050;DHT22;2039;50.894;6.888;2022-09-09T03:39:06;17.60;99.90
4050;DHT22;2039;50.894;6.888;2022-09-09T03:41:32;17.60;99.90
4050;DHT22;2039;50.894;6.888;2022-09-09T03:43:57;17.60;99.90
4050;DHT22;2039;50.894;6.888;2022-09-09T03:46:26;17.60;99.90
4050;DHT22;2039;50.894;6.888;2022-09-09T03:48:52;17.50;99.90
4050;DHT22;2039;50.894;6.888;2022-09-09T03:51:18;17.50;99.90
4050;DHT22;2039;50.894;6.888;2022-09-09T03:53:44;17.50;99.90
4050;DHT22;2039;50.894;6.888;2022-09-09T03:56:10;17.50;99.90
4050;DHT22;2039;50.894;6.888;2022-09-09T03:58:37;17.50;99.90
4050;DHT22;2039;50.894;6.888;2022-09-09T04:03:36;17.60;99.90
4050;DHT22;2039;50.894;6.888;2022-09-09T04:06:03;17.60;99.90
4050;DHT22;2039;50.894;6.888;2022-09-09T04:08:29;17.60;99.90
4050;DHT22;2039;50.894;6.888;2022-09-09T04:10:58;17.50;99.90
4050;DHT22;2039;50.894;6.888;2022-09-09T04:13:25;17.50;99.90
4050;DHT22;2039;50.894;6.888;2022-09-09T04:15:54;17.50;99.90
4050;DHT22;2039;50.894;6.888;2022-09-09T04:18:27;17.50;99.90
4050;DHT22;2039;50.894;6.888;2022-09-09T04:20:56;17.50;99.90
4050;DHT22;2039;50.894;6.888;2022-09-09T04:23:26;17.50;99.90
4050;DHT22;2039;50.894;6.888;2022-09-09T04:25:55;17.50;99.90
4050;DHT22;2039;50.894;6.888;2022-09-09T04:28:23;17.50;99.90
4050;DHT22;2039;50.894;6.888;2022-09-09T04:30:50;17.50;99.90
4050;DHT22;2039;50.894;6.888;2022-09-09T04:33:15;17.60;99.90
4050;DHT22;2039;50.894;6.888;2022-09-09T04:35:49;17.60;99.90
4050;DHT22;2039;50.894;6.888;2022-09-09T04:38:16;17.50;99.90
4050;DHT22;2039;50.894;6.888;2022-09-09T04:40:46;17.50;99.90
4050;DHT22;2039;50.894;6.888;2022-09-09T04:43:12;17.60;99.90
4050;DHT22;2039;50.894;6.888;2022-09-09T04:45:39;17.60;99.90
4050;DHT22;2039;50.894;6.888;2022-09-09T04:48:06;17.60;99.90
4050;DHT22;2039;50.894;6.888;2022-09-09T04:50:32;17.60;99.90
4050;DHT22;2039;50.894;6.888;2022-09-09T04:53:02;17.60;99.90
4050;DHT22;2039;50.894;6.888;2022-09-09T04:55:29;17.70;99.90
4050;DHT22;2039;50.894;6.888;2022-09-09T04:58:03;17.70;99.90
4050;DHT22;2039;50.894;6.888;2022-09-09T05:00:29;17.80;99.90
4050;DHT22;2039;50.894;6.888;2022-09-09T05:02:55;17.80;99.90
4050;DHT22;2039;50.894;6.888;2022-09-09T05:05:20;17.80;99.90
4050;DHT22;2039;50.894;6.888;2022-09-09T05:07:46;17.70;99.90
4050;DHT22;2039;50.894;6.888;2022-09-09T05:10:13;17.80;99.90
4050;DHT22;2039;50.894;6.888;2022-09-09T05:12:42;17.70;99.90
4050;DHT22;2039;50.894;6.888;2022-09-09T05:15:08;17.70;99.90
4050;DHT22;2039;50.894;6.888;2022-09-09T05:17:34;17.70;99.90
4050;DHT22;2039;50.894;6.888;2022-09-09T05:20:00;17.70;99.90
4050;DHT22;2039;50.894;6.888;2022-09-09T05:22:26;17.60;99.90
4050;DHT22;2039;50.894;6.888;2022-09-09T05:24:52;17.70;99.90
4050;DHT22;2039;50.894;6.888;2022-09-09T05:27:18;17.70;99.90
4050;DHT22;2039;50.894;6.888;2022-09-09T05:29:45;17.70;99.90
4050;DHT22;2039;50.894;6.888;2022-09-09T05:32:11;17.70;99.90
4050;DHT22;2039;50.894;6.888;2022-09-09T05:34:37;17.70;99.90
4050;DHT22;2039;50.894;6.888;2022-09-09T05:37:04;17.70;99.90
4050;DHT22;2039;50.894;6.888;2022-09-09T05:39:30;17.70;99.90
4050;DHT22;2039;50.894;6.888;2022-09-09T05:41:56;17.70;99.90
4050;DHT22;2039;50.894;6.888;2022-09-09T05:44:21;17.70;99.90
4050;DHT22;2039;50.894;6.888;2022-09-09T05:46:50;17.70;99.90
4050;DHT22;2039;50.894;6.888;2022-09-09T05:49:16;17.60;99.90
4050;DHT22;2039;50.894;6.888;2022-09-09T05:51:42;17.70;99.90
4050;DHT22;2039;50.894;6.888;2022-09-09T05:54:10;17.60;99.90
4050;DHT22;2039;50.894;6.888;2022-09-09T05:56:38;17.70;99.90
4050;DHT22;2039;50.894;6.888;2022-09-09T05:59:04;17.80;99.90
4050;DHT22;2039;50.894;6.888;2022-09-09T06:01:33;17.90;99.90
4050;DHT22;2039;50.894;6.888;2022-09-09T06:03:59;17.90;99.90
4050;DHT22;2039;50.894;6.888;2022-09-09T06:06:36;18.00;99.90
4050;DHT22;2039;50.894;6.888;2022-09-09T06:09:03;18.00;99.90
4050;DHT22;2039;50.894;6.888;2022-09-09T06:11:32;18.10;99.90
4050;DHT22;2039;50.894;6.888;2022-09-09T06:13:58;18.00;99.90
4050;DHT22;2039;50.894;6.888;2022-09-09T06:16:26;18.10;99.90
4050;DHT22;2039;50.894;6.888;2022-09-09T06:18:53;18.10;99.90
4050;DHT22;2039;50.894;6.888;2022-09-09T06:21:29;18.10;99.90
4050;DHT22;2039;50.894;6.888;2022-09-09T06:23:55;18.00;99.90
4050;DHT22;2039;50.894;6.888;2022-09-09T06:26:23;18.00;99.90
4050;DHT22;2039;50.894;6.888;2022-09-09T06:28:51;18.00;99.90
4050;DHT22;2039;50.894;6.888;2022-09-09T06:31:21;18.00;99.90
4050;DHT22;2039;50.894;6.888;2022-09-09T06:33:48;18.10;99.90
4050;DHT22;2039;50.894;6.888;2022-09-09T06:36:20;18.10;99.90
4050;DHT22;2039;50.894;6.888;2022-09-09T06:38:47;18.10;99.90
4050;DHT22;2039;50.894;6.888;2022-09-09T06:41:14;18.00;99.90
4050;DHT22;2039;50.894;6.888;2022-09-09T06:43:41;18.00;99.90
4050;DHT22;2039;50.894;6.888;2022-09-09T06:46:10;17.90;99.90
4050;DHT22;2039;50.894;6.888;2022-09-09T06:48:42;17.80;99.90
4050;DHT22;2039;50.894;6.888;2022-09-09T06:53:39;17.80;99.90
4050;DHT22;2039;50.894;6.888;2022-09-09T06:58:43;18.00;99.90
4050;DHT22;2039;50.894;6.888;2022-09-09T07:01:13;18.10;99.90
4050;DHT22;2039;50.894;6.888;2022-09-09T07:03:41;18.20;99.90
4050;DHT22;2039;50.894;6.888;2022-09-09T07:06:09;18.20;99.90
4050;DHT22;2039;50.894;6.888;2022-09-09T07:08:40;18.20;99.90
4050;DHT22;2039;50.894;6.888;2022-09-09T07:11:07;18.30;99.90
4050;DHT22;2039;50.894;6.888;2022-09-09T07:13:34;18.30;99.90
4050;DHT22;2039;50.894;6.888;2022-09-09T07:16:07;18.30;99.90
4050;DHT22;2039;50.894;6.888;2022-09-09T07:18:34;18.30;99.90
4050;DHT22;2039;50.894;6.888;2022-09-09T07:21:00;18.40;99.90
4050;DHT22;2039;50.894;6.888;2022-09-09T07:23:27;18.40;99.90
4050;DHT22;2039;50.894;6.888;2022-09-09T07:25:53;18.40;99.90
4050;DHT22;2039;50.894;6.888;2022-09-09T07:28:20;18.40;99.90
4050;DHT22;2039;50.894;6.888;2022-09-09T07:31:00;18.50;99.90
4050;DHT22;2039;50.894;6.888;2022-09-09T07:33:30;18.60;99.90
4050;DHT22;2039;50.894;6.888;2022-09-09T07:36:08;18.60;99.90
4050;DHT22;2039;50.894;6.888;2022-09-09T07:38:39;18.70;99.90
4050;DHT22;2039;50.894;6.888;2022-09-09T07:41:07;18.80;99.90
4050;DHT22;2039;50.894;6.888;2022-09-09T07:43:38;18.90;99.90
4050;DHT22;2039;50.894;6.888;2022-09-09T07:46:04;19.00;98.10
4050;DHT22;2039;50.894;6.888;2022-09-09T07:48:31;18.90;98.50
4050;DHT22;2039;50.894;6.888;2022-09-09T07:51:27;18.90;98.80
4050;DHT22;2039;50.894;6.888;2022-09-09T07:54:02;19.00;96.80
4050;DHT22;2039;50.894;6.888;2022-09-09T07:56:29;19.00;95.60
4050;DHT22;2039;50.894;6.888;2022-09-09T07:58:56;19.20;95.00
4050;DHT22;2039;50.894;6.888;2022-09-09T08:01:23;19.30;95.20
4050;DHT22;2039;50.894;6.888;2022-09-09T08:04:02;19.40;92.60
4050;DHT22;2039;50.894;6.888;2022-09-09T08:06:32;19.40;90.30
4050;DHT22;2039;50.894;6.888;2022-09-09T08:09:00;19.50;79.10
4050;DHT22;2039;50.894;6.888;2022-09-09T08:11:28;19.40;76.10
4050;DHT22;2039;50.894;6.888;2022-09-09T08:13:54;19.40;68.30
4050;DHT22;2039;50.894;6.888;2022-09-09T08:16:25;19.40;81.30
4050;DHT22;2039;50.894;6.888;2022-09-09T08:18:52;19.40;77.00
4050;DHT22;2039;50.894;6.888;2022-09-09T08:21:22;19.50;81.30
4050;DHT22;2039;50.894;6.888;2022-09-09T08:23:51;19.50;81.80
4050;DHT22;2039;50.894;6.888;2022-09-09T08:26:19;19.60;80.50
4050;DHT22;2039;50.894;6.888;2022-09-09T08:28:50;19.70;69.20
4050;DHT22;2039;50.894;6.888;2022-09-09T08:31:22;19.80;59.50
4050;DHT22;2039;50.894;6.888;2022-09-09T08:33:48;19.90;52.60
4050;DHT22;2039;50.894;6.888;2022-09-09T08:36:17;19.90;54.30
4050;DHT22;2039;50.894;6.888;2022-09-09T08:38:43;19.90;42.40
4050;DHT22;2039;50.894;6.888;2022-09-09T08:44:36;19.70;47.00
4050;DHT22;2039;50.894;6.888;2022-09-09T08:55:47;19.90;34.70
4050;DHT22;2039;50.894;6.888;2022-09-09T08:57:53;20.00;32.30
4050;DHT22;2039;50.894;6.888;2022-09-09T09:00:19;20.10;33.20
4050;DHT22;2039;50.894;6.888;2022-09-09T09:03:06;20.20;32.50
4050;DHT22;2039;50.894;6.888;2022-09-09T09:05:42;20.30;28.40
4050;DHT22;2039;50.894;6.888;2022-09-09T09:08:30;20.40;30.80
4050;DHT22;2039;50.894;6.888;2022-09-09T09:10:58;20.40;28.20
4050;DHT22;2039;50.894;6.888;2022-09-09T09:19:11;20.60;28.90
4050;DHT22;2039;50.894;6.888;2022-09-09T09:21:53;20.50;29.00
4050;DHT22;2039;50.894;6.888;2022-09-09T09:27:35;20.20;31.60
4050;DHT22;2039;50.894;6.888;2022-09-09T09:30:22;20.00;34.90
4050;DHT22;2039;50.894;6.888;2022-09-09T09:33:13;20.10;37.10
4050;DHT22;2039;50.894;6.888;2022-09-09T09:35:40;20.20;38.20
4050;DHT22;2039;50.894;6.888;2022-09-09T09:38:32;20.30;37.90
4050;DHT22;2039;50.894;6.888;2022-09-09T09:40:59;20.30;32.20
4050;DHT22;2039;50.894;6.888;2022-09-09T09:43:36;20.30;34.80
4050;DHT22;2039;50.894;6.888;2022-09-09T09:46:16;20.30;38.40
4050;DHT22;2039;50.894;6.888;2022-09-09T09:48:43;20.30;39.20
4050;DHT22;2039;50.894;6.888;2022-09-09T09:51:13;20.30;36.70
4050;DHT22;2039;50.894;6.888;2022-09-09T09:53:41;20.40;32.70
4050;DHT22;2039;50.894;6.888;2022-09-09T09:56:12;20.40;35.00
4050;DHT22;2039;50.894;6.888;2022-09-09T10:01:28;20.60;30.30
4050;DHT22;2039;50.894;6.888;2022-09-09T10:04:00;20.90;26.00
4050;DHT22;2039;50.894;6.888;2022-09-09T10:08:56;20.80;17.80
4050;DHT22;2039;50.894;6.888;2022-09-09T10:14:20;20.70;23.60
4050;DHT22;2039;50.894;6.888;2022-09-09T10:17:09;20.70;22.30
4050;DHT22;2039;50.894;6.888;2022-09-09T10:19:46;20.70;25.30
4050;DHT22;2039;50.894;6.888;2022-09-09T10:22:27;20.50;21.00
4050;DHT22;2039;50.894;6.888;2022-09-09T10:33:04;20.80;21.00
4050;DHT22;2039;50.894;6.888;2022-09-09T10:35:46;20.90;25.30
4050;DHT22;2039;50.894;6.888;2022-09-09T10:43:31;21.30;13.40
4050;DHT22;2039;50.894;6.888;2022-09-09T10:51:23;22.10;1.00
4050;DHT22;2039;50.894;6.888;2022-09-09T10:54:14;22.30;1.00
4050;DHT22;2039;50.894;6.888;2022-09-09T10:56:44;22.20;1.00
4050;DHT22;2039;50.894;6.888;2022-09-09T10:59:18;22.10;1.00
4050;DHT22;2039;50.894;6.888;2022-09-09T11:01:58;22.00;1.00
4050;DHT22;2039;50.894;6.888;2022-09-09T11:04:48;22.10;1.00
4050;DHT22;2039;50.894;6.888;2022-09-09T11:07:26;22.40;1.00
4050;DHT22;2039;50.894;6.888;2022-09-09T11:10:00;22.20;1.00
4050;DHT22;2039;50.894;6.888;2022-09-09T11:12:27;22.20;1.00
4050;DHT22;2039;50.894;6.888;2022-09-09T11:15:16;22.20;1.00
4050;DHT22;2039;50.894;6.888;2022-09-09T11:17:46;22.10;1.00
4050;DHT22;2039;50.894;6.888;2022-09-09T11:20:14;22.00;1.00
4050;DHT22;2039;50.894;6.888;2022-09-09T11:25:23;21.80;1.00
4050;DHT22;2039;50.894;6.888;2022-09-09T11:40:25;22.00;1.00
4050;DHT22;2039;50.894;6.888;2022-09-09T11:43:04;22.20;1.00
4050;DHT22;2039;50.894;6.888;2022-09-09T11:45:32;22.20;1.00
4050;DHT22;2039;50.894;6.888;2022-09-09T11:48:03;22.40;1.00
4050;DHT22;2039;50.894;6.888;2022-09-09T11:50:32;22.30;1.00
4050;DHT22;2039;50.894;6.888;2022-09-09T11:53:22;22.30;1.00
4050;DHT22;2039;50.894;6.888;2022-09-09T11:56:04;22.40;1.00
4050;DHT22;2039;50.894;6.888;2022-09-09T11:58:38;22.40;1.00
4050;DHT22;2039;50.894;6.888;2022-09-09T12:01:15;22.10;1.00
4050;DHT22;2039;50.894;6.888;2022-09-09T12:09:33;21.60;1.00
4050;DHT22;2039;50.894;6.888;2022-09-09T12:15:00;21.50;1.00
4050;DHT22;2039;50.894;6.888;2022-09-09T12:17:29;21.60;1.00
4050;DHT22;2039;50.894;6.888;2022-09-09T12:25:55;21.80;1.00
4050;DHT22;2039;50.894;6.888;2022-09-09T12:28:27;22.00;1.00
4050;DHT22;2039;50.894;6.888;2022-09-09T12:31:16;22.10;1.00
4050;DHT22;2039;50.894;6.888;2022-09-09T12:33:44;22.00;1.00
4050;DHT22;2039;50.894;6.888;2022-09-09T12:36:32;22.00;1.00
4050;DHT22;2039;50.894;6.888;2022-09-09T12:39:17;21.90;1.00
4050;DHT22;2039;50.894;6.888;2022-09-09T12:41:51;21.70;1.00
4050;DHT22;2039;50.894;6.888;2022-09-09T12:44:21;21.60;1.00
4050;DHT22;2039;50.894;6.888;2022-09-09T12:46:48;21.50;1.00
4050;DHT22;2039;50.894;6.888;2022-09-09T12:52:08;22.00;2.20
4050;DHT22;2039;50.894;6.888;2022-09-09T12:54:44;22.70;1.00
4050;DHT22;2039;50.894;6.888;2022-09-09T12:57:12;23.20;1.00
4050;DHT22;2039;50.894;6.888;2022-09-09T12:59:43;23.30;1.00
4050;DHT22;2039;50.894;6.888;2022-09-09T13:02:25;22.90;1.00
4050;DHT22;2039;50.894;6.888;2022-09-09T13:04:52;22.70;1.00
4050;DHT22;2039;50.894;6.888;2022-09-09T13:07:19;22.50;1.00
4050;DHT22;2039;50.894;6.888;2022-09-09T13:09:46;22.60;1.00
4050;DHT22;2039;50.894;6.888;2022-09-09T13:12:18;22.80;1.00
4050;DHT22;2039;50.894;6.888;2022-09-09T13:14:47;22.90;1.00
4050;DHT22;2039;50.894;6.888;2022-09-09T13:17:28;23.00;1.00
4050;DHT22;2039;50.894;6.888;2022-09-09T13:19:54;23.20;1.00
4050;DHT22;2039;50.894;6.888;2022-09-09T13:22:31;23.50;1.00
4050;DHT22;2039;50.894;6.888;2022-09-09T13:25:28;23.20;1.00
4050;DHT22;2039;50.894;6.888;2022-09-09T13:28:05;23.40;1.00
4050;DHT22;2039;50.894;6.888;2022-09-09T13:30:31;23.30;1.00
4050;DHT22;2039;50.894;6.888;2022-09-09T13:35:54;22.90;1.00
4050;DHT22;2039;50.894;6.888;2022-09-09T13:38:20;22.80;1.00
4050;DHT22;2039;50.894;6.888;2022-09-09T13:41:02;22.90;1.00
4050;DHT22;2039;50.894;6.888;2022-09-09T13:43:35;23.20;1.00
4050;DHT22;2039;50.894;6.888;2022-09-09T13:46:05;23.40;1.00
4050;DHT22;2039;50.894;6.888;2022-09-09T13:48:31;23.60;1.00
4050;DHT22;2039;50.894;6.888;2022-09-09T13:51:04;23.80;1.00
4050;DHT22;2039;50.894;6.888;2022-09-09T13:53:31;23.70;1.00
4050;DHT22;2039;50.894;6.888;2022-09-09T13:55:57;23.60;1.00
4050;DHT22;2039;50.894;6.888;2022-09-09T13:58:24;23.30;1.00
4050;DHT22;2039;50.894;6.888;2022-09-09T14:00:51;23.10;1.00
4050;DHT22;2039;50.894;6.888;2022-09-09T14:03:17;22.80;1.00
4050;DHT22;2039;50.894;6.888;2022-09-09T14:05:44;22.60;1.00
4050;DHT22;2039;50.894;6.888;2022-09-09T14:08:21;22.30;1.00
4050;DHT22;2039;50.894;6.888;2022-09-09T14:10:47;22.10;1.00
4050;DHT22;2039;50.894;6.888;2022-09-09T14:13:13;22.10;1.00
4050;DHT22;2039;50.894;6.888;2022-09-09T14:15:40;22.00;1.00
4050;DHT22;2039;50.894;6.888;2022-09-09T14:18:20;21.90;1.00
4050;DHT22;2039;50.894;6.888;2022-09-09T14:20:48;21.80;1.00
4050;DHT22;2039;50.894;6.888;2022-09-09T14:23:16;21.60;1.00
4050;DHT22;2039;50.894;6.888;2022-09-09T14:25:43;21.70;1.20
4050;DHT22;2039;50.894;6.888;2022-09-09T14:28:13;21.80;2.40
4050;DHT22;2039;50.894;6.888;2022-09-09T14:30:40;21.70;6.70
4050;DHT22;2039;50.894;6.888;2022-09-09T14:33:11;21.60;26.40
4050;DHT22;2039;50.894;6.888;2022-09-09T14:35:37;21.40;45.60
4050;DHT22;2039;50.894;6.888;2022-09-09T14:38:04;21.20;88.50
4050;DHT22;2039;50.894;6.888;2022-09-09T14:40:30;21.00;90.60
4050;DHT22;2039;50.894;6.888;2022-09-09T14:42:56;20.80;95.70
4050;DHT22;2039;50.894;6.888;2022-09-09T14:45:25;20.70;99.90
4050;DHT22;2039;50.894;6.888;2022-09-09T14:47:52;20.50;99.90
4050;DHT22;2039;50.894;6.888;2022-09-09T14:50:19;20.40;99.90
4050;DHT22;2039;50.894;6.888;2022-09-09T14:52:45;20.40;99.90
4050;DHT22;2039;50.894;6.888;2022-09-09T14:55:11;20.50;99.90
4050;DHT22;2039;50.894;6.888;2022-09-09T14:57:37;20.70;99.90
4050;DHT22;2039;50.894;6.888;2022-09-09T15:00:04;20.60;99.90
4050;DHT22;2039;50.894;6.888;2022-09-09T15:02:31;20.70;99.90
4050;DHT22;2039;50.894;6.888;2022-09-09T15:04:56;20.80;99.90
4050;DHT22;2039;50.894;6.888;2022-09-09T15:07:24;20.90;99.90
4050;DHT22;2039;50.894;6.888;2022-09-09T15:09:50;21.00;99.90
4050;DHT22;2039;50.894;6.888;2022-09-09T15:12:15;21.10;99.90
4050;DHT22;2039;50.894;6.888;2022-09-09T15:14:44;21.10;99.90
4050;DHT22;2039;50.894;6.888;2022-09-09T15:17:10;21.20;99.90
4050;DHT22;2039;50.894;6.888;2022-09-09T15:19:37;21.10;99.90
4050;DHT22;2039;50.894;6.888;2022-09-09T15:22:04;21.10;99.90
4050;DHT22;2039;50.894;6.888;2022-09-09T15:24:31;20.90;99.90
4050;DHT22;2039;50.894;6.888;2022-09-09T15:26:57;20.80;99.90
4050;DHT22;2039;50.894;6.888;2022-09-09T15:29:24;20.70;99.90
4050;DHT22;2039;50.894;6.888;2022-09-09T15:31:50;20.70;99.90
4050;DHT22;2039;50.894;6.888;2022-09-09T15:34:15;20.50;99.90
4050;DHT22;2039;50.894;6.888;2022-09-09T15:36:43;20.60;99.90
4050;DHT22;2039;50.894;6.888;2022-09-09T15:39:11;20.50;99.90
4050;DHT22;2039;50.894;6.888;2022-09-09T15:41:38;20.50;99.90
4050;DHT22;2039;50.894;6.888;2022-09-09T15:44:04;20.40;99.90
4050;DHT22;2039;50.894;6.888;2022-09-09T15:46:44;20.20;99.90
4050;DHT22;2039;50.894;6.888;2022-09-09T15:49:16;20.10;99.90
4050;DHT22;2039;50.894;6.888;2022-09-09T15:51:45;19.80;99.90
4050;DHT22;2039;50.894;6.888;2022-09-09T15:54:19;19.80;99.90
4050;DHT22;2039;50.894;6.888;2022-09-09T15:56:54;19.70;99.90
4050;DHT22;2039;50.894;6.888;2022-09-09T15:59:23;19.60;99.90
4050;DHT22;2039;50.894;6.888;2022-09-09T16:01:49;19.40;99.90
4050;DHT22;2039;50.894;6.888;2022-09-09T16:04:19;19.40;99.90
4050;DHT22;2039;50.894;6.888;2022-09-09T16:06:52;19.50;99.90
4050;DHT22;2039;50.894;6.888;2022-09-09T16:09:18;19.70;99.90
4050;DHT22;2039;50.894;6.888;2022-09-09T16:11:44;19.60;99.90
4050;DHT22;2039;50.894;6.888;2022-09-09T16:14:12;19.60;99.90
4050;DHT22;2039;50.894;6.888;2022-09-09T16:16:38;19.60;99.90
4050;DHT22;2039;50.894;6.888;2022-09-09T16:19:10;19.60;99.90
4050;DHT22;2039;50.894;6.888;2022-09-09T16:21:41;19.50;99.90
4050;DHT22;2039;50.894;6.888;2022-09-09T16:24:09;19.40;99.90
4050;DHT22;2039;50.894;6.888;2022-09-09T16:26:39;19.60;99.90
4050;DHT22;2039;50.894;6.888;2022-09-09T16:29:05;19.60;99.90
4050;DHT22;2039;50.894;6.888;2022-09-09T16:31:31;19.60;99.90
4050;DHT22;2039;50.894;6.888;2022-09-09T16:33:57;19.70;99.90
4050;DHT22;2039;50.894;6.888;2022-09-09T16:36:28;19.70;99.90
4050;DHT22;2039;50.894;6.888;2022-09-09T16:38:59;19.60;99.90
4050;DHT22;2039;50.894;6.888;2022-09-09T16:41:26;19.70;99.90
4050;DHT22;2039;50.894;6.888;2022-09-09T16:43:57;19.70;99.90
4050;DHT22;2039;50.894;6.888;2022-09-09T16:46:25;19.70;99.90
4050;DHT22;2039;50.894;6.888;2022-09-09T16:48:51;19.90;99.90
4050;DHT22;2039;50.894;6.888;2022-09-09T16:51:32;20.00;99.90
4050;DHT22;2039;50.894;6.888;2022-09-09T16:54:00;20.00;99.90
4050;DHT22;2039;50.894;6.888;2022-09-09T16:56:29;19.90;99.90
4050;DHT22;2039;50.894;6.888;2022-09-09T16:59:00;20.00;99.90
4050;DHT22;2039;50.894;6.888;2022-09-09T17:01:30;20.00;99.90
4050;DHT22;2039;50.894;6.888;2022-09-09T17:03:58;20.00;99.90
4050;DHT22;2039;50.894;6.888;2022-09-09T17:06:24;20.00;99.90
4050;DHT22;2039;50.894;6.888;2022-09-09T17:08:58;20.00;99.90
4050;DHT22;2039;50.894;6.888;2022-09-09T17:11:25;19.90;99.90
4050;DHT22;2039;50.894;6.888;2022-09-09T17:13:52;19.90;99.90
4050;DHT22;2039;50.894;6.888;2022-09-09T17:16:19;19.80;99.90
4050;DHT22;2039;50.894;6.888;2022-09-09T17:18:51;19.80;99.90
4050;DHT22;2039;50.894;6.888;2022-09-09T17:21:19;19.70;99.90
4050;DHT22;2039;50.894;6.888;2022-09-09T17:23:45;19.60;99.90
4050;DHT22;2039;50.894;6.888;2022-09-09T17:26:14;19.40;99.90
4050;DHT22;2039;50.894;6.888;2022-09-09T17:28:41;19.30;99.90
4050;DHT22;2039;50.894;6.888;2022-09-09T17:31:08;19.20;99.90
4050;DHT22;2039;50.894;6.888;2022-09-09T17:33:43;19.20;99.90
4050;DHT22;2039;50.894;6.888;2022-09-09T17:36:15;19.30;99.90
4050;DHT22;2039;50.894;6.888;2022-09-09T17:38:41;19.30;99.90
4050;DHT22;2039;50.894;6.888;2022-09-09T17:41:14;19.30;99.90
4050;DHT22;2039;50.894;6.888;2022-09-09T17:43:40;19.30;99.90
4050;DHT22;2039;50.894;6.888;2022-09-09T17:46:08;19.30;99.90
4050;DHT22;2039;50.894;6.888;2022-09-09T17:48:35;19.30;99.90
4050;DHT22;2039;50.894;6.888;2022-09-09T17:51:05;19.20;99.90
4050;DHT22;2039;50.894;6.888;2022-09-09T17:53:44;19.10;99.90
4050;DHT22;2039;50.894;6.888;2022-09-09T17:56:12;19.10;99.90
4050;DHT22;2039;50.894;6.888;2022-09-09T17:58:38;19.00;99.90
4050;DHT22;2039;50.894;6.888;2022-09-09T18:01:10;18.90;99.90
4050;DHT22;2039;50.894;6.888;2022-09-09T18:03:40;18.90;99.90
4050;DHT22;2039;50.894;6.888;2022-09-09T18:06:10;18.90;99.90
4050;DHT22;2039;50.894;6.888;2022-09-09T18:08:38;19.00;99.90
4050;DHT22;2039;50.894;6.888;2022-09-09T18:11:05;18.80;99.90
4050;DHT22;2039;50.894;6.888;2022-09-09T18:13:31;18.80;99.90
4050;DHT22;2039;50.894;6.888;2022-09-09T18:15:58;18.70;99.90
4050;DHT22;2039;50.894;6.888;2022-09-09T18:18:24;18.80;99.90
4050;DHT22;2039;50.894;6.888;2022-09-09T18:21:01;18.80;99.90
4050;DHT22;2039;50.894;6.888;2022-09-09T18:23:28;18.80;99.90
4050;DHT22;2039;50.894;6.888;2022-09-09T18:25:55;18.70;99.90
4050;DHT22;2039;50.894;6.888;2022-09-09T18:28:24;18.70;99.90
4050;DHT22;2039;50.894;6.888;2022-09-09T18:30:50;18.70;99.90
4050;DHT22;2039;50.894;6.888;2022-09-09T18:33:16;18.60;99.90
4050;DHT22;2039;50.894;6.888;2022-09-09T18:35:42;18.50;99.90
4050;DHT22;2039;50.894;6.888;2022-09-09T18:38:08;18.40;99.90
4050;DHT22;2039;50.894;6.888;2022-09-09T18:40:33;18.50;99.90
4050;DHT22;2039;50.894;6.888;2022-09-09T18:42:59;18.50;99.90
4050;DHT22;2039;50.894;6.888;2022-09-09T18:45:25;18.50;99.90
4050;DHT22;2039;50.894;6.888;2022-09-09T18:47:51;18.50;99.90
4050;DHT22;2039;50.894;6.888;2022-09-09T18:50:17;18.60;99.90
4050;DHT22;2039;50.894;6.888;2022-09-09T18:52:43;18.70;99.90
4050;DHT22;2039;50.894;6.888;2022-09-09T18:55:09;18.60;99.90
4050;DHT22;2039;50.894;6.888;2022-09-09T18:57:35;18.50;99.90